createdAt,value
2017-11-22T00:00:30.524Z,0
2017-11-22T00:01:42.586Z,0
2017-11-22T00:02:55.135Z,0
2017-11-22T00:04:08.107Z,0
2017-11-22T00:05:21.101Z,0
2017-11-22T00:06:33.141Z,0
2017-11-22T00:07:46.137Z,0
2017-11-22T00:08:59.154Z,0
2017-11-22T00:10:12.144Z,0
2017-11-22T00:11:24.237Z,0
2017-11-22T00:12:37.225Z,0
2017-11-22T00:13:49.732Z,0
2017-11-22T00:15:02.262Z,0
2017-11-22T00:16:15.299Z,0
2017-11-22T00:17:28.274Z,0
2017-11-22T00:18:40.803Z,0
2017-11-22T00:19:53.827Z,0
2017-11-22T00:21:06.381Z,0
2017-11-22T00:22:19.396Z,0
2017-11-22T00:23:31.925Z,0
2017-11-22T00:24:44.443Z,0
2017-11-22T00:25:57.010Z,0
2017-11-22T00:27:10.009Z,0
2017-11-22T00:28:23.020Z,0
2017-11-22T00:29:36.054Z,0
2017-11-22T00:30:49.063Z,0
2017-11-22T00:32:02.083Z,0
2017-11-22T00:33:15.136Z,0
2017-11-22T00:34:28.078Z,0
2017-11-22T00:35:41.066Z,0
2017-11-22T00:36:54.095Z,0
2017-11-22T00:38:06.626Z,0
2017-11-22T00:39:19.613Z,0
2017-11-22T00:40:32.588Z,0
2017-11-22T00:41:45.614Z,0
2017-11-22T00:42:58.641Z,0
2017-11-22T00:44:11.639Z,0
2017-11-22T00:45:24.614Z,0
2017-11-22T00:46:37.655Z,0
2017-11-22T00:47:50.219Z,0
2017-11-22T00:49:02.701Z,0
2017-11-22T00:50:15.236Z,0
2017-11-22T00:51:28.210Z,0
2017-11-22T00:52:41.193Z,0
2017-11-22T00:53:54.204Z,0
2017-11-22T00:55:07.232Z,0
2017-11-22T00:56:20.253Z,0
2017-11-22T00:57:33.247Z,0
2017-11-22T00:58:46.259Z,0
2017-11-22T00:59:59.204Z,0
2017-11-22T01:01:12.204Z,0
2017-11-22T01:02:25.194Z,0
2017-11-22T01:03:38.158Z,0
2017-11-22T01:04:50.685Z,0
2017-11-22T01:06:03.680Z,0
2017-11-22T01:07:16.232Z,0
2017-11-22T01:08:29.255Z,0
2017-11-22T01:09:42.251Z,0
2017-11-22T01:10:55.266Z,0
2017-11-22T01:12:08.246Z,0
2017-11-22T01:13:21.259Z,0
2017-11-22T01:14:34.261Z,0
2017-11-22T01:15:47.467Z,0
2017-11-22T01:16:59.963Z,0
2017-11-22T01:18:12.503Z,0
2017-11-22T01:19:25.499Z,0
2017-11-22T01:20:38.487Z,0
2017-11-22T01:21:51.474Z,0
2017-11-22T01:23:04.031Z,0
2017-11-22T01:24:16.560Z,0
2017-11-22T01:25:29.097Z,0
2017-11-22T01:26:41.609Z,0
2017-11-22T01:27:54.592Z,0
2017-11-22T01:29:07.568Z,0
2017-11-22T01:30:20.533Z,0
2017-11-22T01:31:33.043Z,0
2017-11-22T01:32:46.080Z,0
2017-11-22T01:33:58.624Z,0
2017-11-22T01:35:11.167Z,0
2017-11-22T01:36:23.698Z,0
2017-11-22T01:37:36.218Z,0
2017-11-22T01:38:49.169Z,0
2017-11-22T01:40:02.216Z,0
2017-11-22T01:41:15.205Z,0
2017-11-22T01:42:28.209Z,0
2017-11-22T01:43:40.727Z,0
2017-11-22T01:44:53.908Z,0
2017-11-22T01:46:06.897Z,0
2017-11-22T01:47:19.904Z,0
2017-11-22T01:48:32.021Z,0
2017-11-22T01:49:45.034Z,0
2017-11-22T01:50:58.022Z,0
2017-11-22T01:52:11.022Z,0
2017-11-22T01:53:24.022Z,0
2017-11-22T01:54:37.016Z,0
2017-11-22T01:55:49.992Z,0
2017-11-22T01:57:02.512Z,0
2017-11-22T01:58:15.528Z,0
2017-11-22T01:59:28.530Z,0
2017-11-22T02:00:41.053Z,0
2017-11-22T02:01:54.027Z,0
2017-11-22T02:03:07.046Z,0
2017-11-22T02:04:19.595Z,0
2017-11-22T02:05:32.622Z,0
2017-11-22T02:06:45.183Z,0
2017-11-22T02:07:58.178Z,0
2017-11-22T02:09:11.239Z,0
2017-11-22T02:10:24.277Z,0
2017-11-22T02:11:37.322Z,0
2017-11-22T02:12:50.504Z,0
2017-11-22T02:14:02.986Z,0
2017-11-22T02:15:15.999Z,0
2017-11-22T02:16:28.978Z,0
2017-11-22T02:17:41.962Z,0
2017-11-22T02:18:54.507Z,0
2017-11-22T02:20:07.448Z,0
2017-11-22T02:21:20.019Z,0
2017-11-22T02:22:32.065Z,0
2017-11-22T02:23:45.070Z,0
2017-11-22T02:24:57.594Z,0
2017-11-22T02:26:10.626Z,0
2017-11-22T02:27:23.593Z,0
2017-11-22T02:28:36.597Z,0
2017-11-22T02:29:49.580Z,0
2017-11-22T02:31:02.623Z,0
2017-11-22T02:32:15.171Z,0
2017-11-22T02:33:28.166Z,0
2017-11-22T02:34:41.184Z,0
2017-11-22T02:35:54.237Z,0
2017-11-22T02:37:06.818Z,0
2017-11-22T02:38:19.831Z,0
2017-11-22T02:39:32.841Z,0
2017-11-22T02:40:45.379Z,0
2017-11-22T02:41:58.397Z,0
2017-11-22T02:43:11.477Z,0
2017-11-22T02:44:24.251Z,0
2017-11-22T02:45:37.239Z,0
2017-11-22T02:46:50.259Z,0
2017-11-22T02:48:03.261Z,0
2017-11-22T02:49:15.805Z,0
2017-11-22T02:50:28.850Z,0
2017-11-22T02:51:41.405Z,0
2017-11-22T02:52:53.910Z,0
2017-11-22T02:54:06.945Z,0
2017-11-22T02:55:19.956Z,0
2017-11-22T02:56:32.974Z,0
2017-11-22T02:57:45.982Z,0
2017-11-22T02:58:59.006Z,0
2017-11-22T03:00:12.021Z,0
2017-11-22T03:01:25.017Z,0
2017-11-22T03:02:38.001Z,0
2017-11-22T03:03:50.996Z,0
2017-11-22T03:05:04.022Z,0
2017-11-22T03:06:16.092Z,0
2017-11-22T03:07:28.960Z,0
2017-11-22T03:08:41.939Z,0
2017-11-22T03:09:54.903Z,0
2017-11-22T03:11:07.890Z,0
2017-11-22T03:12:20.887Z,0
2017-11-22T03:13:33.434Z,0
2017-11-22T03:14:46.467Z,0
2017-11-22T03:15:59.447Z,0
2017-11-22T03:17:11.979Z,0
2017-11-22T03:18:24.973Z,0
2017-11-22T03:19:37.942Z,0
2017-11-22T03:20:50.427Z,0
2017-11-22T03:22:03.442Z,0
2017-11-22T03:23:15.772Z,0
2017-11-22T03:24:28.753Z,0
2017-11-22T03:25:41.809Z,0
2017-11-22T03:26:54.789Z,0
2017-11-22T03:28:08.032Z,0
2017-11-22T03:29:21.002Z,0
2017-11-22T03:30:34.020Z,0
2017-11-22T03:31:47.074Z,0
2017-11-22T03:33:00.049Z,0
2017-11-22T03:34:13.035Z,0
2017-11-22T03:35:26.039Z,0
2017-11-22T03:36:39.062Z,0
2017-11-22T03:37:52.063Z,0
2017-11-22T03:39:05.095Z,0
2017-11-22T03:40:18.141Z,0
2017-11-22T03:41:31.181Z,0
2017-11-22T03:42:43.727Z,0
2017-11-22T03:43:56.683Z,0
2017-11-22T03:45:09.220Z,0
2017-11-22T03:46:22.233Z,0
2017-11-22T03:47:35.225Z,0
2017-11-22T03:48:48.204Z,0
2017-11-22T03:50:01.213Z,0
2017-11-22T03:51:13.763Z,0
2017-11-22T03:52:26.306Z,0
2017-11-22T03:53:39.327Z,0
2017-11-22T03:54:51.921Z,0
2017-11-22T03:56:04.934Z,0
2017-11-22T03:57:17.942Z,0
2017-11-22T03:58:31.067Z,0
2017-11-22T03:59:44.106Z,0
2017-11-22T04:00:57.095Z,0
2017-11-22T04:02:09.162Z,0
2017-11-22T04:03:21.663Z,0
2017-11-22T04:04:33.964Z,0
2017-11-22T04:05:47.143Z,0
2017-11-22T04:07:00.148Z,0
2017-11-22T04:08:13.115Z,0
2017-11-22T04:09:26.131Z,0
2017-11-22T04:10:39.117Z,0
2017-11-22T04:11:52.095Z,0
2017-11-22T04:13:05.104Z,0
2017-11-22T04:14:18.103Z,0
2017-11-22T04:15:31.111Z,0
2017-11-22T04:16:43.671Z,0
2017-11-22T04:17:56.684Z,0
2017-11-22T04:19:09.681Z,0
2017-11-22T04:20:22.678Z,0
2017-11-22T04:21:35.822Z,0
2017-11-22T04:22:48.349Z,0
2017-11-22T04:24:01.315Z,0
2017-11-22T04:25:14.313Z,0
2017-11-22T04:26:27.306Z,0
2017-11-22T04:27:39.832Z,0
2017-11-22T04:28:52.809Z,0
2017-11-22T04:30:05.826Z,0
2017-11-22T04:31:18.308Z,0
2017-11-22T04:32:31.280Z,0
2017-11-22T04:33:43.791Z,0
2017-11-22T04:34:55.869Z,0
2017-11-22T04:36:08.397Z,0
2017-11-22T04:37:20.907Z,0
2017-11-22T04:38:33.840Z,0
2017-11-22T04:39:46.809Z,0
2017-11-22T04:40:58.364Z,0
2017-11-22T04:42:10.893Z,0
2017-11-22T04:43:23.404Z,0
2017-11-22T04:44:36.397Z,0
2017-11-22T04:45:49.410Z,0
2017-11-22T04:47:02.486Z,0
2017-11-22T04:48:15.056Z,0
2017-11-22T04:49:28.045Z,0
2017-11-22T04:50:41.016Z,0
2017-11-22T04:51:54.017Z,0
2017-11-22T04:53:07.057Z,0
2017-11-22T04:54:19.623Z,0
2017-11-22T04:55:32.143Z,0
2017-11-22T04:56:45.141Z,0
2017-11-22T04:57:58.128Z,0
2017-11-22T04:59:11.291Z,0
2017-11-22T05:00:24.382Z,0
2017-11-22T05:01:37.367Z,0
2017-11-22T05:02:50.356Z,0
2017-11-22T05:04:03.336Z,0
2017-11-22T05:05:15.349Z,0
2017-11-22T05:06:28.333Z,0
2017-11-22T05:07:41.335Z,0
2017-11-22T05:08:54.396Z,0
2017-11-22T05:10:07.432Z,0
2017-11-22T05:11:20.422Z,0
2017-11-22T05:12:33.428Z,0
2017-11-22T05:13:46.480Z,0
2017-11-22T05:14:59.464Z,0
2017-11-22T05:16:12.462Z,0
2017-11-22T05:17:25.453Z,0
2017-11-22T05:18:38.439Z,0
2017-11-22T05:19:50.986Z,0
2017-11-22T05:21:03.944Z,0
2017-11-22T05:22:16.968Z,0
2017-11-22T05:23:29.957Z,0
2017-11-22T05:24:42.922Z,0
2017-11-22T05:25:55.910Z,0
2017-11-22T05:27:08.929Z,0
2017-11-22T05:28:21.903Z,0
2017-11-22T05:29:34.883Z,0
2017-11-22T05:30:47.857Z,0
2017-11-22T05:32:00.876Z,0
2017-11-22T05:33:13.896Z,0
2017-11-22T05:34:26.889Z,0
2017-11-22T05:35:40.069Z,0
2017-11-22T05:36:53.075Z,0
2017-11-22T05:38:06.053Z,0
2017-11-22T05:39:19.034Z,0
2017-11-22T05:40:32.269Z,0
2017-11-22T05:41:45.287Z,0
2017-11-22T05:42:57.802Z,0
2017-11-22T05:44:10.783Z,0
2017-11-22T05:45:23.735Z,0
2017-11-22T05:46:36.718Z,0
2017-11-22T05:47:49.742Z,0
2017-11-22T05:49:02.716Z,0
2017-11-22T05:50:15.704Z,0
2017-11-22T05:51:28.717Z,0
2017-11-22T05:52:41.173Z,0
2017-11-22T05:53:54.157Z,0
2017-11-22T05:55:07.114Z,0
2017-11-22T05:56:19.685Z,0
2017-11-22T05:57:32.223Z,0
2017-11-22T05:58:45.452Z,0
2017-11-22T05:59:58.415Z,0
2017-11-22T06:01:10.935Z,0
2017-11-22T06:02:23.969Z,0
2017-11-22T06:03:36.960Z,0
2017-11-22T06:04:49.955Z,0
2017-11-22T06:06:02.484Z,0
2017-11-22T06:07:15.503Z,0
2017-11-22T06:08:28.046Z,0
2017-11-22T06:09:40.576Z,0
2017-11-22T06:10:52.659Z,0
2017-11-22T06:12:04.750Z,0
2017-11-22T06:13:17.852Z,0
2017-11-22T06:14:30.806Z,0
2017-11-22T06:15:43.787Z,0
2017-11-22T06:16:56.780Z,0
2017-11-22T06:18:09.755Z,0
2017-11-22T06:19:21.830Z,0
2017-11-22T06:20:34.851Z,0
2017-11-22T06:21:47.385Z,0
2017-11-22T06:23:00.379Z,0
2017-11-22T06:24:13.418Z,0
2017-11-22T06:25:26.418Z,0
2017-11-22T06:26:38.933Z,0
2017-11-22T06:27:51.926Z,0
2017-11-22T06:29:04.653Z,0
2017-11-22T06:30:16.713Z,0
2017-11-22T06:31:29.222Z,0
2017-11-22T06:32:42.225Z,0
2017-11-22T06:33:54.757Z,0
2017-11-22T06:35:07.713Z,0
2017-11-22T06:36:20.705Z,0
2017-11-22T06:37:33.728Z,0
2017-11-22T06:38:46.737Z,0
2017-11-22T06:39:59.693Z,0
2017-11-22T06:41:12.199Z,0
2017-11-22T06:42:24.273Z,0
2017-11-22T06:43:37.278Z,0
2017-11-22T06:44:49.622Z,0
2017-11-22T06:46:02.650Z,0
2017-11-22T06:47:15.136Z,0
2017-11-22T06:48:28.150Z,0
2017-11-22T06:49:41.198Z,0
2017-11-22T06:50:53.736Z,0
2017-11-22T06:52:06.275Z,0
2017-11-22T06:53:18.762Z,0
2017-11-22T06:54:31.326Z,0
2017-11-22T06:55:43.864Z,0
2017-11-22T06:56:56.876Z,0
2017-11-22T06:58:09.612Z,0
2017-11-22T06:59:22.133Z,0
2017-11-22T07:00:35.138Z,0
2017-11-22T07:01:47.653Z,0
2017-11-22T07:03:00.685Z,0
2017-11-22T07:04:13.649Z,0
2017-11-22T07:05:26.614Z,0
2017-11-22T07:06:39.604Z,0
2017-11-22T07:07:52.603Z,0
2017-11-22T07:09:05.585Z,0
2017-11-22T07:10:18.097Z,0
2017-11-22T07:11:30.587Z,0
2017-11-22T07:12:43.102Z,0
2017-11-22T07:13:56.091Z,0
2017-11-22T07:16:53.290Z,0
2017-11-22T07:18:06.262Z,0
2017-11-22T07:19:19.258Z,0
2017-11-22T07:20:32.217Z,0
2017-11-22T07:21:45.205Z,0
2017-11-22T07:22:57.790Z,0
2017-11-22T07:24:10.794Z,0
2017-11-22T07:25:23.785Z,0
2017-11-22T07:26:36.781Z,0
2017-11-22T07:27:49.812Z,0
2017-11-22T07:29:02.533Z,0
2017-11-22T07:30:14.611Z,0
2017-11-22T07:31:27.579Z,0
2017-11-22T07:32:40.558Z,0
2017-11-22T07:33:53.483Z,0
2017-11-22T07:35:05.762Z,0
2017-11-22T07:36:18.795Z,0
2017-11-22T07:37:31.771Z,0
2017-11-22T07:38:44.763Z,0
2017-11-22T07:39:57.745Z,0
2017-11-22T07:41:09.809Z,0
2017-11-22T07:42:22.798Z,0
2017-11-22T07:43:35.799Z,0
2017-11-22T07:44:48.782Z,0
2017-11-22T07:46:32.987Z,0
2017-11-22T07:47:45.991Z,0
2017-11-22T07:48:59.014Z,0
2017-11-22T07:50:11.052Z,0
2017-11-22T07:51:24.053Z,0
2017-11-22T07:52:36.992Z,0
2017-11-22T07:53:50.017Z,0
2017-11-22T07:55:02.965Z,0
2017-11-22T07:56:15.958Z,0
2017-11-22T07:57:28.480Z,0
2017-11-22T07:58:41.479Z,0
2017-11-22T07:59:54.030Z,0
2017-11-22T08:01:06.598Z,0
2017-11-22T08:02:19.594Z,0
2017-11-22T08:03:32.102Z,0
2017-11-22T08:04:44.651Z,0
2017-11-22T08:05:57.163Z,0
2017-11-22T08:07:10.192Z,0
2017-11-22T08:08:22.264Z,0
2017-11-22T08:11:19.440Z,0
2017-11-22T08:12:32.646Z,0
2017-11-22T08:13:45.626Z,5
2017-11-22T08:14:58.611Z,5
2017-11-22T08:16:11.120Z,5
2017-11-22T08:17:24.086Z,5
2017-11-22T08:18:37.094Z,5
2017-11-22T08:19:50.073Z,10
2017-11-22T08:21:03.083Z,10
2017-11-22T08:22:15.580Z,15
2017-11-22T08:23:28.591Z,15
2017-11-22T08:24:41.619Z,15
2017-11-22T08:25:54.138Z,20
2017-11-22T08:27:07.137Z,20
2017-11-22T08:28:20.114Z,25
2017-11-22T08:29:32.870Z,30
2017-11-22T08:30:45.404Z,30
2017-11-22T08:31:58.399Z,35
2017-11-22T08:33:10.922Z,40
2017-11-22T08:34:23.909Z,45
2017-11-22T08:35:36.928Z,55
2017-11-22T08:36:49.497Z,60
2017-11-22T08:38:02.596Z,65
2017-11-22T08:39:14.658Z,70
2017-11-22T08:40:26.749Z,70
2017-11-22T08:41:39.739Z,80
2017-11-22T08:42:52.755Z,85
2017-11-22T08:44:05.276Z,90
2017-11-22T08:45:17.821Z,95
2017-11-22T08:46:30.833Z,100
2017-11-22T08:47:43.844Z,115
2017-11-22T08:48:56.855Z,125
2017-11-22T08:50:09.417Z,130
2017-11-22T08:51:21.911Z,135
2017-11-22T08:52:35.140Z,135
2017-11-22T08:53:47.687Z,45
2017-11-22T08:54:59.753Z,45
2017-11-22T08:56:12.779Z,35
2017-11-22T08:57:25.775Z,40
2017-11-22T08:58:38.759Z,35
2017-11-22T08:59:51.317Z,40
2017-11-22T09:01:04.354Z,35
2017-11-22T09:02:17.385Z,35
2017-11-22T09:03:30.368Z,30
2017-11-22T09:04:42.870Z,30
2017-11-22T09:05:55.838Z,30
2017-11-22T09:07:08.813Z,30
2017-11-22T09:08:21.815Z,25
2017-11-22T09:09:34.378Z,35
2017-11-22T09:10:47.381Z,35
2017-11-22T09:11:59.937Z,50
2017-11-22T09:13:12.944Z,40
2017-11-22T09:14:25.453Z,40
2017-11-22T09:15:38.433Z,50
2017-11-22T09:16:51.420Z,85
2017-11-22T09:18:04.419Z,65
2017-11-22T09:19:16.941Z,80
2017-11-22T09:20:29.927Z,75
2017-11-22T09:21:42.928Z,95
2017-11-22T09:22:55.869Z,100
2017-11-22T09:24:08.833Z,80
2017-11-22T09:25:21.419Z,100
2017-11-22T09:26:33.901Z,95
2017-11-22T09:27:46.454Z,95
2017-11-22T09:28:59.446Z,95
2017-11-22T09:30:11.023Z,90
2017-11-22T09:31:24.233Z,85
2017-11-22T09:32:36.733Z,90
2017-11-22T09:33:49.741Z,85
2017-11-22T09:35:01.831Z,85
2017-11-22T09:36:14.345Z,60
2017-11-22T09:37:27.324Z,65
2017-11-22T09:38:39.850Z,75
2017-11-22T09:39:52.918Z,85
2017-11-22T09:41:05.892Z,70
2017-11-22T09:42:18.957Z,60
2017-11-22T09:43:31.966Z,70
2017-11-22T09:44:44.929Z,80
2017-11-22T09:45:57.916Z,80
2017-11-22T09:47:10.010Z,90
2017-11-22T09:48:23.016Z,275
2017-11-22T09:49:35.552Z,270
2017-11-22T09:50:48.551Z,260
2017-11-22T09:52:01.093Z,285
2017-11-22T09:53:14.107Z,335
2017-11-22T09:54:27.117Z,345
2017-11-22T09:55:40.117Z,320
2017-11-22T09:56:53.075Z,300
2017-11-22T09:58:05.135Z,240
2017-11-22T09:59:17.674Z,260
2017-11-22T10:00:30.424Z,420
2017-11-22T10:01:43.444Z,510
2017-11-22T10:02:56.010Z,550
2017-11-22T10:04:08.532Z,550
2017-11-22T10:05:21.535Z,555
2017-11-22T10:06:34.505Z,560
2017-11-22T10:07:47.516Z,555
2017-11-22T10:09:00.556Z,560
2017-11-22T10:10:13.088Z,555
2017-11-22T10:11:25.649Z,510
2017-11-22T10:12:38.830Z,450
2017-11-22T10:13:51.800Z,365
2017-11-22T10:15:04.303Z,325
2017-11-22T10:16:16.831Z,340
2017-11-22T10:17:29.840Z,350
2017-11-22T10:18:42.852Z,320
2017-11-22T10:19:54.924Z,280
2017-11-22T10:21:06.518Z,230
2017-11-22T10:22:19.031Z,225
2017-11-22T10:23:31.974Z,250
2017-11-22T10:24:45.188Z,285
2017-11-22T10:25:58.202Z,310
2017-11-22T10:27:11.170Z,320
2017-11-22T10:28:24.185Z,300
2017-11-22T10:29:37.195Z,295
2017-11-22T10:30:50.172Z,305
2017-11-22T10:32:02.710Z,325
2017-11-22T10:33:15.697Z,345
2017-11-22T10:34:28.245Z,360
2017-11-22T10:35:41.248Z,385
2017-11-22T10:36:53.780Z,425
2017-11-22T10:38:06.765Z,485
2017-11-22T10:39:19.708Z,545
2017-11-22T10:40:31.749Z,565
2017-11-22T10:41:44.331Z,595
2017-11-22T10:42:57.334Z,630
2017-11-22T10:44:09.831Z,650
2017-11-22T10:45:22.790Z,655
2017-11-22T10:46:35.785Z,665
2017-11-22T10:47:48.800Z,670
2017-11-22T10:49:01.753Z,695
2017-11-22T10:50:14.290Z,745
2017-11-22T10:51:27.309Z,780
2017-11-22T10:53:11.525Z,780
2017-11-22T10:54:24.494Z,755
2017-11-22T10:55:37.457Z,745
2017-11-22T10:56:49.496Z,750
2017-11-22T10:58:02.454Z,770
2017-11-22T10:59:15.006Z,805
2017-11-22T11:00:28.008Z,825
2017-11-22T11:01:40.961Z,825
2017-11-22T11:02:53.497Z,825
2017-11-22T11:04:06.488Z,830
2017-11-22T11:05:18.564Z,835
2017-11-22T11:06:31.572Z,850
2017-11-22T11:07:44.584Z,855
2017-11-22T11:08:57.167Z,865
2017-11-22T11:10:09.689Z,875
2017-11-22T11:11:22.697Z,850
2017-11-22T11:12:36.012Z,805
2017-11-22T11:13:49.032Z,745
2017-11-22T11:15:02.047Z,685
2017-11-22T11:16:15.070Z,660
2017-11-22T11:17:28.069Z,645
2017-11-22T11:18:41.076Z,660
2017-11-22T11:19:52.687Z,680
2017-11-22T11:21:05.692Z,705
2017-11-22T11:22:18.691Z,735
2017-11-22T11:23:31.646Z,795
2017-11-22T11:24:44.632Z,850
2017-11-22T11:25:57.375Z,895
2017-11-22T11:27:10.421Z,930
2017-11-22T11:28:23.372Z,955
2017-11-22T11:29:36.371Z,985
2017-11-22T11:30:48.900Z,975
2017-11-22T11:32:01.896Z,940
2017-11-22T11:33:14.891Z,965
2017-11-22T11:34:27.948Z,1025
2017-11-22T11:35:40.918Z,1125
2017-11-22T11:36:52.474Z,1175
2017-11-22T11:38:05.521Z,1140
2017-11-22T11:39:18.547Z,1145
2017-11-22T11:40:31.062Z,1170
2017-11-22T11:41:44.162Z,1085
2017-11-22T11:42:57.160Z,920
2017-11-22T11:44:09.714Z,830
2017-11-22T11:45:22.728Z,835
2017-11-22T11:46:35.686Z,930
2017-11-22T11:47:48.484Z,1055
2017-11-22T11:49:01.238Z,1035
2017-11-22T11:50:13.325Z,995
2017-11-22T11:51:25.866Z,1055
2017-11-22T11:52:38.434Z,1260
2017-11-22T11:53:51.391Z,1280
2017-11-22T11:55:04.449Z,1555
2017-11-22T11:56:17.449Z,1305
2017-11-22T11:57:30.433Z,1395
2017-11-22T11:58:43.417Z,1310
2017-11-22T11:59:55.968Z,1190
2017-11-22T12:01:08.513Z,1230
2017-11-22T12:02:20.556Z,1080
2017-11-22T12:03:33.134Z,1110
2017-11-22T12:04:46.192Z,1295
2017-11-22T12:05:58.722Z,1585
2017-11-22T12:07:11.746Z,1815
2017-11-22T12:08:24.736Z,1850
2017-11-22T12:09:37.749Z,3395
2017-11-22T12:10:50.313Z,1685
2017-11-22T12:12:03.041Z,1020
2017-11-22T12:13:15.103Z,900
2017-11-22T12:14:27.668Z,845
2017-11-22T12:15:39.776Z,815
2017-11-22T12:16:52.779Z,805
2017-11-22T12:18:04.878Z,1000
2017-11-22T12:19:16.480Z,1235
2017-11-22T12:20:28.525Z,1345
2017-11-22T12:21:41.105Z,1185
2017-11-22T12:22:54.107Z,980
2017-11-22T12:24:07.113Z,875
2017-11-22T12:25:19.649Z,765
2017-11-22T12:26:32.644Z,680
2017-11-22T12:27:45.149Z,705
2017-11-22T12:28:58.245Z,855
2017-11-22T12:30:10.293Z,1055
2017-11-22T12:31:22.812Z,1180
2017-11-22T12:32:35.780Z,1205
2017-11-22T12:33:48.285Z,1170
2017-11-22T12:35:00.820Z,1295
2017-11-22T12:36:13.843Z,1440
2017-11-22T12:37:26.836Z,1515
2017-11-22T12:38:39.760Z,1380
2017-11-22T12:39:52.791Z,1350
2017-11-22T12:41:05.781Z,1315
2017-11-22T12:42:17.810Z,1265
2017-11-22T12:43:30.822Z,1280
2017-11-22T12:44:43.842Z,1275
2017-11-22T12:45:56.454Z,1280
2017-11-22T12:47:09.649Z,1420
2017-11-22T12:48:22.638Z,2305
2017-11-22T12:49:34.727Z,1545
2017-11-22T12:50:47.260Z,1825
2017-11-22T12:52:00.939Z,2745
2017-11-22T12:53:13.450Z,1420
2017-11-22T12:54:26.493Z,1420
2017-11-22T12:55:39.681Z,1340
2017-11-22T12:56:52.639Z,1410
2017-11-22T12:58:05.242Z,1590
2017-11-22T12:59:18.263Z,1460
2017-11-22T13:00:31.259Z,1390
2017-11-22T13:01:44.269Z,1440
2017-11-22T13:02:56.845Z,1410
2017-11-22T13:04:09.859Z,1350
2017-11-22T13:05:22.392Z,1360
2017-11-22T13:06:34.998Z,1445
2017-11-22T13:07:48.239Z,1470
2017-11-22T13:09:01.236Z,1535
2017-11-22T13:10:13.314Z,1545
2017-11-22T13:11:26.305Z,1575
2017-11-22T13:12:39.279Z,1675
2017-11-22T13:13:52.268Z,1670
2017-11-22T13:15:06.009Z,1520
2017-11-22T13:16:18.998Z,1525
2017-11-22T13:17:31.572Z,1535
2017-11-22T13:18:44.585Z,1355
2017-11-22T13:19:57.542Z,1040
2017-11-22T13:21:41.772Z,890
2017-11-22T13:22:54.838Z,895
2017-11-22T13:24:08.524Z,985
2017-11-22T13:25:25.266Z,1185
2017-11-22T13:26:38.946Z,1345
2017-11-22T13:27:51.014Z,1450
2017-11-22T13:29:03.072Z,1685
2017-11-22T13:30:15.580Z,1745
2017-11-22T13:31:28.552Z,1565
2017-11-22T13:32:41.043Z,1405
2017-11-22T13:33:53.590Z,1335
2017-11-22T13:35:05.668Z,1155
2017-11-22T13:36:18.225Z,1030
2017-11-22T13:37:30.782Z,1000
2017-11-22T13:38:43.314Z,1045
2017-11-22T13:39:56.338Z,1150
2017-11-22T13:41:08.885Z,1225
2017-11-22T13:42:21.886Z,1020
2017-11-22T13:43:34.926Z,985
2017-11-22T13:44:47.908Z,975
2017-11-22T13:46:00.468Z,975
2017-11-22T13:47:12.996Z,1010
2017-11-22T13:48:25.520Z,1030
2017-11-22T13:49:38.764Z,1015
2017-11-22T13:50:51.798Z,985
2017-11-22T13:52:04.826Z,930
2017-11-22T13:53:18.068Z,875
2017-11-22T13:54:31.059Z,910
2017-11-22T13:55:44.100Z,935
2017-11-22T13:56:57.068Z,930
2017-11-22T13:58:09.627Z,915
2017-11-22T13:59:22.632Z,960
2017-11-22T14:00:35.603Z,1075
2017-11-22T14:01:48.604Z,1190
2017-11-22T14:03:01.667Z,1230
2017-11-22T14:04:14.687Z,1390
2017-11-22T14:05:27.200Z,1335
2017-11-22T14:06:40.241Z,1175
2017-11-22T14:07:53.194Z,990
2017-11-22T14:09:06.176Z,835
2017-11-22T14:10:19.147Z,715
2017-11-22T14:11:32.168Z,650
2017-11-22T14:12:45.165Z,695
2017-11-22T14:13:58.149Z,770
2017-11-22T14:15:11.145Z,840
2017-11-22T14:16:24.137Z,795
2017-11-22T14:17:37.173Z,785
2017-11-22T14:18:49.720Z,780
2017-11-22T14:20:02.714Z,710
2017-11-22T14:21:14.910Z,675
2017-11-22T14:22:27.915Z,670
2017-11-22T14:23:40.470Z,765
2017-11-22T14:24:53.010Z,910
2017-11-22T14:26:05.108Z,1030
2017-11-22T14:27:18.155Z,1095
2017-11-22T14:28:30.721Z,1065
2017-11-22T14:29:43.248Z,970
2017-11-22T14:30:56.237Z,835
2017-11-22T14:32:08.812Z,710
2017-11-22T14:33:21.802Z,615
2017-11-22T14:34:34.815Z,625
2017-11-22T14:35:47.806Z,670
2017-11-22T14:37:00.865Z,675
2017-11-22T14:38:13.391Z,590
2017-11-22T14:39:25.964Z,640
2017-11-22T14:40:38.965Z,675
2017-11-22T14:41:51.514Z,595
2017-11-22T14:43:04.530Z,535
2017-11-22T14:44:17.563Z,590
2017-11-22T14:45:30.597Z,750
2017-11-22T14:46:43.660Z,850
2017-11-22T14:47:56.143Z,965
2017-11-22T14:49:09.123Z,1150
2017-11-22T14:50:21.197Z,1200
2017-11-22T14:51:33.781Z,1075
2017-11-22T14:52:46.744Z,940
2017-11-22T14:53:59.756Z,840
2017-11-22T14:55:12.994Z,720
2017-11-22T14:56:25.968Z,645
2017-11-22T14:57:39.003Z,650
2017-11-22T14:58:52.099Z,760
2017-11-22T15:00:04.672Z,845
2017-11-22T15:01:17.698Z,820
2017-11-22T15:02:30.227Z,800
2017-11-22T15:03:43.239Z,790
2017-11-22T15:04:56.198Z,745
2017-11-22T15:06:08.711Z,845
2017-11-22T15:07:21.259Z,920
2017-11-22T15:08:34.270Z,965
2017-11-22T15:09:47.315Z,875
2017-11-22T15:11:00.295Z,840
2017-11-22T15:12:12.804Z,775
2017-11-22T15:13:25.364Z,825
2017-11-22T15:14:37.901Z,890
2017-11-22T15:15:50.891Z,930
2017-11-22T15:17:03.861Z,930
2017-11-22T15:18:16.428Z,990
2017-11-22T15:19:29.425Z,1020
2017-11-22T15:20:41.963Z,1120
2017-11-22T15:21:54.033Z,1315
2017-11-22T15:23:06.370Z,1580
2017-11-22T15:24:19.365Z,2010
2017-11-22T15:25:32.366Z,2365
2017-11-22T15:26:45.333Z,1410
2017-11-22T15:27:57.862Z,915
2017-11-22T15:29:10.905Z,690
2017-11-22T15:30:23.473Z,575
2017-11-22T15:31:36.030Z,750
2017-11-22T15:32:48.785Z,985
2017-11-22T15:34:00.842Z,990
2017-11-22T15:35:14.119Z,1055
2017-11-22T15:36:27.137Z,1235
2017-11-22T15:37:40.362Z,1440
2017-11-22T15:38:52.916Z,1900
2017-11-22T15:40:05.478Z,1555
2017-11-22T15:41:18.499Z,1555
2017-11-22T15:42:31.547Z,1580
2017-11-22T15:43:44.082Z,1580
2017-11-22T15:44:57.119Z,1940
2017-11-22T15:46:09.242Z,1690
2017-11-22T15:47:22.239Z,1520
2017-11-22T15:48:35.274Z,1420
2017-11-22T15:49:47.845Z,1265
2017-11-22T15:51:00.864Z,885
2017-11-22T15:52:13.424Z,790
2017-11-22T15:53:26.440Z,890
2017-11-22T15:54:38.957Z,1015
2017-11-22T15:55:51.973Z,1075
2017-11-22T15:57:04.952Z,1055
2017-11-22T15:58:17.043Z,1220
2017-11-22T15:59:30.076Z,1150
2017-11-22T16:00:43.104Z,1200
2017-11-22T16:01:55.649Z,1190
2017-11-22T16:03:08.405Z,1315
2017-11-22T16:04:20.959Z,1255
2017-11-22T16:05:33.487Z,1165
2017-11-22T16:06:46.464Z,1040
2017-11-22T16:07:58.955Z,965
2017-11-22T16:09:11.456Z,885
2017-11-22T16:10:23.504Z,735
2017-11-22T16:11:36.535Z,900
2017-11-22T16:12:49.512Z,1110
2017-11-22T16:14:02.560Z,1080
2017-11-22T16:15:15.856Z,1215
2017-11-22T16:16:28.871Z,1265
2017-11-22T16:17:41.854Z,1290
2017-11-22T16:18:54.395Z,1165
2017-11-22T16:20:06.925Z,985
2017-11-22T16:21:19.890Z,915
2017-11-22T16:22:32.397Z,990
2017-11-22T16:23:45.381Z,1075
2017-11-22T16:24:57.910Z,1200
2017-11-22T16:26:10.907Z,1325
2017-11-22T16:27:23.700Z,1315
2017-11-22T16:28:37.391Z,1190
2017-11-22T16:29:50.372Z,1050
2017-11-22T16:31:02.905Z,980
2017-11-22T16:32:14.491Z,925
2017-11-22T16:33:27.456Z,915
2017-11-22T16:34:40.471Z,1060
2017-11-22T16:35:53.665Z,1260
2017-11-22T16:37:06.680Z,1315
2017-11-22T16:38:19.236Z,1275
2017-11-22T16:39:32.243Z,1325
2017-11-22T16:40:45.281Z,1135
2017-11-22T16:41:57.823Z,875
2017-11-22T16:43:10.343Z,725
2017-11-22T16:44:22.854Z,615
2017-11-22T16:45:35.362Z,715
2017-11-22T16:46:47.923Z,940
2017-11-22T16:48:00.944Z,870
2017-11-22T16:49:13.486Z,910
2017-11-22T16:50:26.450Z,820
2017-11-22T16:51:39.427Z,655
2017-11-22T16:52:52.451Z,645
2017-11-22T16:54:05.661Z,810
2017-11-22T16:55:18.626Z,850
2017-11-22T16:56:31.641Z,980
2017-11-22T16:57:44.692Z,1005
2017-11-22T16:58:57.782Z,825
2017-11-22T17:00:09.889Z,755
2017-11-22T17:01:23.090Z,650
2017-11-22T17:02:36.111Z,665
2017-11-22T17:03:48.615Z,865
2017-11-22T17:05:01.643Z,940
2017-11-22T17:06:14.641Z,825
2017-11-22T17:07:27.641Z,695
2017-11-22T17:08:40.637Z,725
2017-11-22T17:09:53.622Z,820
2017-11-22T17:11:06.645Z,850
2017-11-22T17:12:19.645Z,1225
2017-11-22T17:13:32.444Z,1405
2017-11-22T17:14:45.445Z,1250
2017-11-22T17:15:58.477Z,1095
2017-11-22T17:17:11.542Z,1115